createdAt,value
2017-10-30T00:02:21.683Z,5.60
2017-10-30T00:04:49.171Z,4.03
2017-10-30T00:07:17.388Z,3.90
2017-10-30T00:09:44.852Z,6.30
2017-10-30T00:12:12.339Z,4.73
2017-10-30T00:14:39.812Z,4.50
2017-10-30T00:17:08.050Z,4.00
2017-10-30T00:19:35.511Z,4.73
2017-10-30T00:22:02.996Z,4.47
2017-10-30T00:24:31.230Z,4.27
2017-10-30T00:26:58.703Z,4.00
2017-10-30T00:29:26.188Z,6.40
2017-10-30T00:31:54.432Z,4.97
2017-10-30T00:34:21.900Z,4.40
2017-10-30T00:36:49.358Z,4.57
2017-10-30T00:39:16.844Z,4.23
2017-10-30T00:41:45.088Z,4.57
2017-10-30T00:44:12.539Z,4.50
2017-10-30T00:46:40.022Z,4.57
2017-10-30T00:49:08.243Z,4.80
2017-10-30T00:51:35.708Z,3.80
2017-10-30T00:54:03.179Z,4.00
2017-10-30T00:56:30.646Z,4.77
2017-10-30T00:58:58.135Z,5.90
2017-10-30T01:01:26.372Z,4.83
2017-10-30T01:03:54.638Z,6.23
2017-10-30T01:06:22.083Z,4.60
2017-10-30T01:08:49.546Z,5.47
2017-10-30T01:11:17.041Z,5.00
2017-10-30T01:13:45.272Z,5.37
2017-10-30T01:16:12.742Z,5.67
2017-10-30T01:18:40.228Z,5.53
2017-10-30T01:21:08.472Z,5.03
2017-10-30T01:23:35.944Z,5.37
2017-10-30T01:26:03.420Z,4.90
2017-10-30T01:28:31.650Z,4.37
2017-10-30T01:30:59.130Z,5.27
2017-10-30T01:33:26.592Z,4.90
2017-10-30T01:35:54.066Z,5.00
2017-10-30T01:38:22.296Z,4.20
2017-10-30T01:40:49.780Z,4.80
2017-10-30T01:43:17.264Z,4.70
2017-10-30T01:45:44.727Z,4.10
2017-10-30T01:48:12.211Z,4.83
2017-10-30T01:50:39.691Z,5.23
2017-10-30T01:53:07.155Z,5.40
2017-10-30T01:55:34.647Z,5.40
2017-10-30T01:58:02.125Z,4.90
2017-10-30T02:00:29.587Z,5.00
2017-10-30T02:02:57.058Z,5.53
2017-10-30T02:05:24.521Z,5.30
2017-10-30T02:07:52.004Z,5.83
2017-10-30T02:10:19.471Z,4.93
2017-10-30T02:12:47.699Z,6.17
2017-10-30T02:15:15.173Z,6.27
2017-10-30T02:17:42.633Z,5.43
2017-10-30T02:20:10.111Z,6.47
2017-10-30T02:22:38.361Z,5.70
2017-10-30T02:25:05.831Z,5.80
2017-10-30T02:27:33.311Z,6.80
2017-10-30T02:30:01.542Z,5.13
2017-10-30T02:32:29.073Z,5.50
2017-10-30T02:34:56.544Z,6.40
2017-10-30T02:37:23.999Z,5.63
2017-10-30T02:39:51.463Z,6.23
2017-10-30T02:42:18.951Z,6.27
2017-10-30T02:44:46.415Z,5.87
2017-10-30T02:47:14.670Z,5.70
2017-10-30T02:49:42.143Z,6.07
2017-10-30T02:52:10.363Z,5.30
2017-10-30T02:54:37.850Z,6.20
2017-10-30T02:57:05.311Z,6.20
2017-10-30T02:59:33.904Z,6.37
2017-10-30T03:02:01.380Z,5.10
2017-10-30T03:04:29.595Z,5.27
2017-10-30T03:06:57.071Z,5.60
2017-10-30T03:09:24.539Z,4.80
2017-10-30T03:11:52.011Z,4.70
2017-10-30T03:14:20.243Z,5.00
2017-10-30T03:16:47.724Z,4.80
2017-10-30T03:19:15.179Z,5.20
2017-10-30T03:21:42.660Z,5.40
2017-10-30T03:24:10.899Z,4.80
2017-10-30T03:26:38.373Z,4.90
2017-10-30T03:29:05.849Z,4.60
2017-10-30T03:31:34.072Z,4.87
2017-10-30T03:34:01.867Z,4.60
2017-10-30T03:36:29.327Z,4.70
2017-10-30T03:38:56.793Z,3.90
2017-10-30T03:41:24.275Z,4.07
2017-10-30T03:43:51.730Z,4.13
2017-10-30T03:46:19.204Z,3.80
2017-10-30T03:48:46.672Z,4.00
2017-10-30T03:51:14.144Z,4.00
2017-10-30T03:53:41.610Z,4.10
2017-10-30T03:56:09.085Z,2.97
2017-10-30T03:58:36.531Z,5.00
2017-10-30T04:01:03.993Z,3.53
2017-10-30T04:03:31.478Z,3.97
2017-10-30T04:05:59.704Z,3.90
2017-10-30T04:08:27.200Z,3.50
2017-10-30T04:10:55.443Z,3.60
2017-10-30T04:13:22.888Z,4.77
2017-10-30T04:15:50.383Z,3.60
2017-10-30T04:18:18.612Z,3.50
2017-10-30T04:20:46.076Z,4.20
2017-10-30T04:23:13.564Z,4.77
2017-10-30T04:25:41.067Z,3.97
2017-10-30T04:28:08.632Z,4.20
2017-10-30T04:30:36.101Z,3.80
2017-10-30T04:33:03.567Z,4.00
2017-10-30T04:35:31.027Z,3.50
2017-10-30T04:37:58.503Z,3.50
2017-10-30T04:40:25.960Z,4.37
2017-10-30T04:42:53.435Z,3.83
2017-10-30T04:45:21.668Z,4.60
2017-10-30T04:47:49.151Z,3.13
2017-10-30T04:50:16.611Z,5.00
2017-10-30T04:52:44.851Z,4.10
2017-10-30T04:55:12.322Z,4.07
2017-10-30T04:57:39.787Z,4.30
2017-10-30T05:00:08.769Z,3.47
2017-10-30T05:02:37.015Z,3.93
2017-10-30T05:05:04.487Z,4.30
2017-10-30T05:07:31.968Z,3.83
2017-10-30T05:09:59.432Z,4.80
2017-10-30T05:12:26.907Z,4.00
2017-10-30T05:14:54.371Z,3.73
2017-10-30T05:17:21.841Z,3.50
2017-10-30T05:19:49.320Z,3.90
2017-10-30T05:22:16.787Z,3.80
2017-10-30T05:24:44.264Z,3.70
2017-10-30T05:27:11.724Z,3.50
2017-10-30T05:29:40.019Z,3.67
2017-10-30T05:32:08.248Z,3.83
2017-10-30T05:34:35.721Z,3.70
2017-10-30T05:37:03.183Z,2.87
2017-10-30T05:39:30.651Z,4.00
2017-10-30T05:41:58.890Z,3.53
2017-10-30T05:44:26.367Z,3.40
2017-10-30T05:46:53.836Z,3.87
2017-10-30T05:49:21.310Z,3.23
2017-10-30T05:51:49.547Z,3.33
2017-10-30T05:54:17.037Z,3.50
2017-10-30T05:56:45.264Z,3.70
2017-10-30T05:59:12.726Z,4.20
2017-10-30T06:01:40.207Z,3.53
2017-10-30T06:04:07.663Z,3.30
2017-10-30T06:06:35.123Z,4.27
2017-10-30T06:09:02.611Z,4.00
2017-10-30T06:11:30.094Z,3.93
2017-10-30T06:13:57.583Z,4.40
2017-10-30T06:16:25.059Z,3.90
2017-10-30T06:18:53.290Z,3.57
2017-10-30T06:21:20.769Z,3.60
2017-10-30T06:23:48.227Z,3.53
2017-10-30T06:26:15.690Z,4.73
2017-10-30T06:28:43.172Z,3.70
2017-10-30T06:31:11.396Z,3.43
2017-10-30T06:33:38.871Z,4.37
2017-10-30T06:36:06.339Z,3.57
2017-10-30T06:38:34.603Z,3.63
2017-10-30T06:41:02.063Z,3.60
2017-10-30T06:43:29.524Z,3.53
2017-10-30T06:45:57.008Z,3.77
2017-10-30T06:48:24.475Z,4.40
2017-10-30T06:50:51.962Z,4.30
2017-10-30T06:53:19.421Z,4.03
2017-10-30T06:55:46.956Z,3.63
2017-10-30T06:58:14.430Z,4.37
2017-10-30T07:00:41.889Z,3.30
2017-10-30T07:03:09.371Z,3.60
2017-10-30T07:05:36.845Z,3.43
2017-10-30T07:08:05.070Z,5.73
2017-10-30T07:10:32.531Z,3.50
2017-10-30T07:13:00.014Z,3.07
2017-10-30T07:15:27.482Z,4.87
2017-10-30T07:17:55.715Z,4.17
2017-10-30T07:20:23.208Z,3.67
2017-10-30T07:22:50.671Z,2.90
2017-10-30T07:25:18.902Z,3.37
2017-10-30T07:27:46.375Z,2.77
2017-10-30T07:30:13.840Z,4.13
2017-10-30T07:32:41.319Z,3.30
2017-10-30T07:35:09.570Z,3.70
2017-10-30T07:37:37.025Z,3.93
2017-10-30T07:40:04.508Z,2.47
2017-10-30T07:42:32.736Z,3.27
2017-10-30T07:45:00.215Z,3.33
2017-10-30T07:47:27.674Z,3.37
2017-10-30T07:49:55.924Z,2.80
2017-10-30T07:52:23.391Z,2.90
2017-10-30T07:54:50.859Z,3.43
2017-10-30T07:57:19.827Z,2.90
2017-10-30T07:59:47.299Z,3.07
2017-10-30T08:02:14.751Z,2.83
2017-10-30T08:04:42.233Z,3.60
2017-10-30T08:07:11.197Z,3.37
2017-10-30T08:09:38.666Z,2.97
2017-10-30T08:12:06.146Z,3.00
2017-10-30T08:14:34.367Z,3.00
2017-10-30T08:17:01.851Z,4.17
2017-10-30T08:19:29.300Z,2.83
2017-10-30T08:21:56.768Z,3.17
2017-10-30T08:24:24.235Z,2.93
2017-10-30T08:26:51.692Z,2.90
2017-10-30T08:29:19.196Z,4.10
2017-10-30T08:31:46.663Z,3.60
2017-10-30T08:34:14.212Z,3.60
2017-10-30T08:36:41.687Z,3.93
2017-10-30T08:39:09.149Z,3.23
2017-10-30T08:41:36.639Z,3.00
2017-10-30T08:44:05.596Z,3.23
2017-10-30T08:46:33.056Z,2.87
2017-10-30T08:49:00.530Z,3.30
2017-10-30T08:51:28.755Z,3.57
2017-10-30T08:53:56.226Z,3.50
2017-10-30T08:56:23.683Z,3.10
2017-10-30T08:58:51.198Z,2.90
2017-10-30T09:01:19.513Z,3.27
2017-10-30T09:03:46.964Z,3.10
2017-10-30T09:06:14.477Z,2.73
2017-10-30T09:08:41.937Z,3.70
2017-10-30T09:11:09.400Z,3.10
2017-10-30T09:13:37.652Z,3.30
2017-10-30T09:16:05.116Z,2.73
2017-10-30T09:18:32.596Z,3.60
2017-10-30T09:21:00.824Z,3.40
2017-10-30T09:23:28.303Z,2.97
2017-10-30T09:25:57.277Z,2.87
2017-10-30T09:28:24.771Z,2.80
2017-10-30T09:30:52.999Z,2.93
2017-10-30T09:33:20.465Z,2.73
2017-10-30T09:35:47.953Z,3.07
2017-10-30T09:38:15.403Z,2.60
2017-10-30T09:40:42.885Z,3.27
2017-10-30T09:43:11.114Z,2.30
2017-10-30T09:45:38.585Z,3.10
2017-10-30T09:48:06.067Z,3.17
2017-10-30T09:50:34.295Z,2.70
2017-10-30T09:53:01.755Z,2.60
2017-10-30T09:55:29.235Z,2.73
2017-10-30T09:57:56.704Z,2.50
2017-10-30T10:00:24.945Z,2.63
2017-10-30T10:02:52.425Z,2.87
2017-10-30T10:05:20.663Z,3.20
2017-10-30T10:07:48.131Z,3.83
2017-10-30T10:10:15.608Z,2.50
2017-10-30T10:12:43.067Z,3.00
2017-10-30T10:15:10.539Z,2.83
2017-10-30T10:17:38.774Z,2.73
2017-10-30T10:20:06.247Z,2.90
2017-10-30T10:22:34.480Z,2.90
2017-10-30T10:25:01.945Z,3.00
2017-10-30T10:27:29.421Z,2.70
2017-10-30T10:29:56.880Z,3.03
2017-10-30T10:32:24.371Z,3.37
2017-10-30T10:34:52.616Z,3.67
2017-10-30T10:37:20.077Z,2.93
2017-10-30T10:39:47.555Z,3.00
2017-10-30T10:42:15.787Z,2.90
2017-10-30T10:44:43.264Z,3.20
2017-10-30T10:47:10.720Z,2.60
2017-10-30T10:49:38.185Z,2.93
2017-10-30T10:52:06.427Z,3.03
2017-10-30T10:54:33.896Z,3.17
2017-10-30T10:57:01.363Z,2.17
2017-10-30T10:59:30.348Z,2.70
2017-10-30T11:01:57.816Z,3.03
2017-10-30T11:04:25.295Z,2.77
2017-10-30T11:06:53.533Z,3.33
2017-10-30T11:09:20.994Z,2.97
2017-10-30T11:11:48.451Z,2.77
2017-10-30T11:14:15.943Z,2.57
2017-10-30T11:16:44.158Z,2.60
2017-10-30T11:19:11.632Z,2.50
2017-10-30T11:21:39.133Z,2.60
2017-10-30T11:24:07.366Z,2.80
2017-10-30T11:26:34.860Z,2.60
2017-10-30T11:29:03.095Z,2.23
2017-10-30T11:31:30.573Z,3.70
2017-10-30T11:33:58.031Z,3.07
2017-10-30T11:36:26.260Z,2.57
2017-10-30T11:38:53.756Z,2.63
2017-10-30T11:41:21.217Z,2.47
2017-10-30T11:43:48.692Z,2.77
2017-10-30T11:46:16.925Z,3.17
2017-10-30T11:48:44.415Z,2.20
2017-10-30T11:51:12.646Z,2.50
2017-10-30T11:53:40.138Z,3.20
2017-10-30T11:56:07.614Z,3.00
2017-10-30T11:58:35.862Z,2.87
2017-10-30T12:01:03.331Z,2.43
2017-10-30T12:03:31.600Z,3.10
2017-10-30T12:05:59.054Z,2.87
2017-10-30T12:08:26.519Z,2.67
2017-10-30T12:10:54.764Z,2.80
2017-10-30T12:13:22.232Z,2.90
2017-10-30T12:15:49.712Z,2.83
2017-10-30T12:18:17.942Z,2.30
2017-10-30T12:20:45.400Z,3.20
2017-10-30T12:23:12.876Z,3.30
2017-10-30T12:25:40.339Z,2.67
2017-10-30T12:28:07.824Z,2.83
2017-10-30T12:30:36.047Z,2.87
2017-10-30T12:33:03.504Z,3.00
2017-10-30T12:35:30.985Z,3.10
2017-10-30T12:37:58.464Z,3.73
2017-10-30T12:40:26.694Z,2.77
2017-10-30T12:42:54.168Z,2.20
2017-10-30T12:45:21.652Z,2.50
2017-10-30T12:47:49.875Z,4.27
2017-10-30T12:50:17.365Z,2.50
2017-10-30T12:52:44.816Z,2.40
2017-10-30T12:55:13.797Z,3.37
2017-10-30T12:57:41.268Z,2.60
2017-10-30T13:00:09.496Z,2.10
2017-10-30T13:02:36.976Z,2.10
2017-10-30T13:05:04.434Z,2.80
2017-10-30T13:07:31.910Z,2.60
2017-10-30T13:09:59.375Z,2.67
2017-10-30T13:12:27.608Z,2.37
2017-10-30T13:14:55.094Z,2.83
2017-10-30T13:17:22.564Z,2.60
2017-10-30T13:19:50.048Z,3.17
2017-10-30T13:22:17.524Z,2.37
2017-10-30T13:24:44.989Z,2.33
2017-10-30T13:27:12.468Z,2.43
2017-10-30T13:29:39.938Z,2.23
2017-10-30T13:32:07.442Z,2.60
2017-10-30T13:34:34.919Z,2.40
2017-10-30T13:37:02.402Z,2.50
2017-10-30T13:39:29.886Z,2.60
2017-10-30T13:41:58.120Z,2.50
2017-10-30T13:44:25.601Z,2.33
2017-10-30T13:46:53.831Z,2.70
2017-10-30T13:49:21.308Z,2.20
2017-10-30T13:51:48.772Z,2.33
2017-10-30T13:54:16.246Z,3.43
2017-10-30T13:56:43.730Z,2.97
2017-10-30T13:59:11.208Z,2.20
2017-10-30T14:01:38.675Z,2.27
2017-10-30T14:04:06.146Z,3.20
2017-10-30T14:06:33.620Z,2.40
2017-10-30T14:09:01.114Z,2.40
2017-10-30T14:11:28.577Z,1.93
2017-10-30T14:13:56.051Z,2.50
2017-10-30T14:16:23.532Z,2.07
2017-10-30T14:18:50.991Z,2.57
2017-10-30T14:21:18.484Z,2.60
2017-10-30T14:23:46.713Z,2.13
2017-10-30T14:26:14.170Z,1.83
2017-10-30T14:28:41.651Z,2.33
2017-10-30T14:31:10.627Z,2.07
2017-10-30T14:33:38.103Z,2.20
2017-10-30T14:36:05.574Z,3.53
2017-10-30T14:38:33.826Z,3.07
2017-10-30T14:41:01.295Z,2.73
2017-10-30T14:43:28.800Z,2.30
2017-10-30T14:45:56.267Z,3.33
2017-10-30T14:48:23.729Z,3.17
2017-10-30T14:50:51.195Z,2.47
2017-10-30T14:53:18.660Z,2.40
2017-10-30T14:55:47.640Z,2.30
2017-10-30T14:58:15.111Z,2.67
2017-10-30T15:00:43.355Z,2.17
2017-10-30T15:03:10.832Z,2.00
2017-10-30T15:05:39.815Z,2.47
2017-10-30T15:08:07.283Z,2.03
2017-10-30T15:10:34.747Z,2.23
2017-10-30T15:13:02.216Z,2.40
2017-10-30T15:15:29.703Z,2.90
2017-10-30T15:17:57.183Z,2.17
2017-10-30T15:20:24.643Z,2.23
2017-10-30T15:22:52.112Z,2.40
2017-10-30T15:25:19.595Z,2.23
2017-10-30T15:27:47.067Z,2.40
2017-10-30T15:30:15.303Z,2.10
2017-10-30T15:32:42.759Z,2.50
2017-10-30T15:35:10.228Z,2.43
2017-10-30T15:37:37.699Z,2.30
2017-10-30T15:40:05.176Z,2.20
2017-10-30T15:42:33.403Z,1.77
2017-10-30T15:45:00.886Z,2.10
2017-10-30T15:47:28.343Z,3.13
2017-10-30T15:49:55.838Z,2.20
2017-10-30T15:52:23.341Z,2.83
2017-10-30T15:54:50.802Z,2.07
2017-10-30T15:57:18.280Z,2.10
2017-10-30T15:59:46.496Z,2.77
2017-10-30T16:02:13.980Z,1.93
2017-10-30T16:04:41.435Z,2.47
2017-10-30T16:07:08.912Z,3.20
2017-10-30T16:09:36.390Z,2.43
2017-10-30T16:12:04.609Z,2.17
2017-10-30T16:14:32.072Z,2.20
2017-10-30T16:16:59.543Z,1.80
2017-10-30T16:19:27.067Z,2.60
2017-10-30T16:21:54.544Z,3.20
2017-10-30T16:24:21.998Z,2.00
2017-10-30T16:26:49.484Z,2.50
2017-10-30T16:29:16.952Z,2.50
2017-10-30T16:31:45.184Z,2.60
2017-10-30T16:34:12.668Z,3.20
2017-10-30T16:36:40.130Z,3.60
2017-10-30T16:39:08.367Z,3.77
2017-10-30T16:41:35.844Z,4.40
2017-10-30T16:44:03.311Z,3.53
2017-10-30T16:46:31.567Z,3.20
2017-10-30T16:48:59.020Z,2.97
2017-10-30T16:51:26.493Z,2.53
2017-10-30T16:53:53.972Z,1.80
2017-10-30T16:56:22.219Z,2.80
2017-10-30T16:58:49.698Z,2.73
2017-10-30T17:01:17.928Z,3.27
2017-10-30T17:03:45.408Z,3.20
2017-10-30T17:06:14.403Z,3.20
2017-10-30T17:08:43.382Z,3.57
2017-10-30T17:11:10.871Z,3.80
2017-10-30T17:13:39.116Z,3.97
2017-10-30T17:16:06.586Z,4.00
2017-10-30T17:18:35.554Z,4.60
2017-10-30T17:21:03.043Z,4.17
2017-10-30T17:23:31.311Z,3.20
2017-10-30T17:25:58.783Z,3.60
2017-10-30T17:28:27.040Z,3.53
2017-10-30T17:30:54.522Z,4.37
2017-10-30T17:33:22.755Z,4.00
2017-10-30T17:35:50.238Z,2.90
2017-10-30T17:38:18.476Z,4.20
2017-10-30T17:40:45.936Z,3.80
2017-10-30T17:43:13.414Z,4.00
2017-10-30T17:45:40.905Z,4.40
2017-10-30T17:48:08.407Z,4.57
2017-10-30T17:50:35.865Z,3.70
2017-10-30T17:53:03.343Z,3.80
2017-10-30T17:55:30.844Z,4.00
2017-10-30T17:57:58.310Z,4.30
2017-10-30T18:00:25.783Z,3.93
2017-10-30T18:02:53.260Z,5.30
2017-10-30T18:05:20.755Z,4.37
2017-10-30T18:07:48.980Z,4.50
2017-10-30T18:10:16.473Z,5.00
2017-10-30T18:12:44.706Z,3.80
2017-10-30T18:15:12.196Z,4.20
2017-10-30T18:17:39.652Z,4.57
2017-10-30T18:20:07.106Z,3.33
2017-10-30T18:22:35.400Z,3.70
2017-10-30T18:25:03.632Z,4.87
2017-10-30T18:27:31.090Z,4.73
2017-10-30T18:29:58.592Z,4.93
2017-10-30T18:32:26.854Z,4.43
2017-10-30T18:34:54.301Z,5.57
2017-10-30T18:37:21.791Z,4.10
2017-10-30T18:39:49.259Z,4.80
2017-10-30T18:42:16.741Z,4.93
2017-10-30T18:44:44.205Z,5.10
2017-10-30T18:47:11.706Z,5.17
2017-10-30T18:49:39.952Z,5.17
2017-10-30T18:52:07.428Z,5.40
2017-10-30T18:54:35.670Z,5.33
2017-10-30T18:57:03.153Z,4.90
2017-10-30T18:59:30.643Z,4.00
2017-10-30T19:01:58.095Z,4.50
2017-10-30T19:04:25.568Z,5.77
2017-10-30T19:06:53.058Z,4.20
2017-10-30T19:09:20.527Z,3.97
2017-10-30T19:11:48.783Z,4.30
2017-10-30T19:14:16.253Z,4.50
2017-10-30T19:16:43.753Z,3.90
2017-10-30T19:19:11.223Z,6.17
2017-10-30T19:21:38.715Z,4.10
2017-10-30T19:24:06.200Z,4.03
2017-10-30T19:26:34.431Z,4.00
2017-10-30T19:29:01.916Z,4.37
2017-10-30T19:31:29.384Z,4.50
2017-10-30T19:33:57.644Z,4.30
2017-10-30T19:36:25.903Z,5.07
2017-10-30T19:38:53.396Z,4.40
2017-10-30T19:41:21.663Z,4.20
2017-10-30T19:43:49.900Z,3.90
2017-10-30T19:46:17.369Z,3.80
2017-10-30T19:48:44.869Z,4.13
2017-10-30T19:51:13.105Z,4.50
2017-10-30T19:53:40.571Z,5.70
2017-10-30T19:56:08.059Z,5.50
2017-10-30T19:58:36.567Z,6.47
2017-10-30T20:01:04.071Z,5.70
2017-10-30T20:03:31.528Z,6.03
2017-10-30T20:06:04.800Z,5.23
2017-10-30T20:08:37.928Z,6.57
2017-10-30T20:11:11.765Z,8.47
2017-10-30T20:13:39.248Z,8.30
2017-10-30T20:16:06.785Z,8.03
2017-10-30T20:18:34.298Z,6.67
2017-10-30T20:21:02.557Z,8.20
2017-10-30T20:23:30.023Z,7.50
2017-10-30T20:25:57.515Z,7.70
2017-10-30T20:28:24.988Z,8.40
2017-10-30T20:30:52.474Z,7.53
2017-10-30T20:33:19.967Z,8.27
2017-10-30T20:35:48.228Z,8.80
2017-10-30T20:38:16.455Z,7.50
2017-10-30T20:40:43.922Z,8.20
2017-10-30T20:43:11.415Z,8.17
2017-10-30T20:45:38.883Z,7.80
2017-10-30T20:48:07.149Z,8.80
2017-10-30T20:50:35.390Z,7.70
2017-10-30T20:53:03.635Z,7.97
2017-10-30T20:55:31.093Z,8.80
2017-10-30T20:57:59.474Z,7.40
2017-10-30T21:00:26.947Z,7.57
2017-10-30T21:02:54.421Z,7.40
2017-10-30T21:05:21.886Z,7.47
2017-10-30T21:07:49.340Z,7.10
2017-10-30T21:10:16.831Z,6.50
2017-10-30T21:12:45.063Z,7.47
2017-10-30T21:15:12.547Z,6.60
2017-10-30T21:17:40.036Z,8.40
2017-10-30T21:20:07.520Z,9.03
2017-10-30T21:22:34.976Z,7.93
2017-10-30T21:25:02.457Z,8.13
2017-10-30T21:27:29.940Z,7.10
2017-10-30T21:29:58.182Z,8.93
2017-10-30T21:32:25.670Z,8.83
2017-10-30T21:34:53.911Z,8.60
2017-10-30T21:37:21.385Z,7.57
2017-10-30T21:39:48.855Z,7.20
2017-10-30T21:42:17.108Z,7.43
2017-10-30T21:44:45.338Z,7.57
2017-10-30T21:47:12.804Z,6.37
2017-10-30T21:49:40.285Z,6.50
2017-10-30T21:52:07.744Z,6.10
2017-10-30T21:54:35.368Z,6.83
2017-10-30T21:57:02.845Z,6.20
2017-10-30T21:59:30.327Z,6.70
2017-10-30T22:01:57.807Z,7.10
2017-10-30T22:04:26.041Z,9.07
2017-10-30T22:06:53.523Z,7.17
2017-10-30T22:09:20.992Z,6.30
2017-10-30T22:11:49.224Z,7.10
2017-10-30T22:14:16.709Z,5.83
2017-10-30T22:16:44.196Z,6.70
2017-10-30T22:19:11.675Z,6.27
2017-10-30T22:21:39.161Z,7.00
2017-10-30T22:24:06.635Z,6.70
2017-10-30T22:26:34.109Z,6.30
2017-10-30T22:29:02.363Z,6.27
2017-10-30T22:31:29.839Z,6.80
2017-10-30T22:33:58.089Z,6.23
2017-10-30T22:36:25.573Z,6.53
2017-10-30T22:38:53.799Z,6.90
2017-10-30T22:41:21.288Z,8.37
2017-10-30T22:43:48.751Z,8.90
2017-10-30T22:46:16.235Z,7.93
2017-10-30T22:48:43.695Z,8.60
2017-10-30T22:51:11.171Z,7.60
2017-10-30T22:53:38.652Z,8.50
2017-10-30T22:56:06.115Z,7.73
2017-10-30T22:58:33.624Z,6.90
2017-10-30T23:01:01.081Z,6.93
2017-10-30T23:03:28.560Z,6.80
2017-10-30T23:05:56.027Z,6.90
2017-10-30T23:08:23.490Z,6.87
2017-10-30T23:10:51.016Z,6.10
2017-10-30T23:13:18.479Z,7.10
2017-10-30T23:15:45.943Z,6.30
2017-10-30T23:18:13.423Z,6.63
2017-10-30T23:20:40.904Z,6.87
2017-10-30T23:23:09.116Z,6.37
2017-10-30T23:25:36.595Z,6.23
2017-10-30T23:28:04.076Z,6.67
2017-10-30T23:30:32.317Z,6.27
2017-10-30T23:32:59.793Z,6.60
2017-10-30T23:35:27.266Z,6.20
2017-10-30T23:37:54.745Z,6.20
2017-10-30T23:40:22.976Z,6.53
2017-10-30T23:42:51.216Z,6.37
2017-10-30T23:45:18.703Z,6.00
2017-10-30T23:47:46.180Z,8.20
2017-10-30T23:50:13.648Z,6.60
2017-10-30T23:52:41.127Z,6.90
2017-10-30T23:55:09.359Z,6.50
2017-10-30T23:57:36.842Z,6.33
